THY2231 LTAJ-LTFM
Flight info
| Callsign | THY2231 |
|---|---|
| Flight time | N/A |
| Altitude | 36000 |
| Route | POGEN UL605 BELSU UA17 BALAX UL605 YAVRU UA4 ERSEN |
| Aircraft | B739/M-SDE2E3FGHIRWXY/LB1 |
Departure
| Time | 2026-04-23 12:04 |
|---|---|
| Airport | Gaziantep Oğuzeli International Airport (LTAJ) |
Arrival
| Time | N/A |
|---|---|
| Airport | İstanbul Airport (LTFM) |
| Time | Latitude | Longitude | Altitude | Speed | Heading |
|---|---|---|---|---|---|
| 2026-04-23 11:51 | 36.94590 | 37.47474 | 2224 ft | 0 kts | 195° |
| 2026-04-23 11:53 | 36.94599 | 37.47477 | 2224 ft | 4 kts | 199° |
| 2026-04-23 11:53 | 36.94619 | 37.47482 | 2221 ft | 4 kts | 185° |
| 2026-04-23 11:53 | 36.94646 | 37.47482 | 2226 ft | 4 kts | 171° |
| 2026-04-23 11:53 | 36.94664 | 37.47478 | 2220 ft | 1 kts | 166° |
| 2026-04-23 11:54 | 36.94667 | 37.47477 | 2221 ft | 2 kts | 166° |
| 2026-04-23 11:57 | 36.94656 | 37.47483 | 2220 ft | 3 kts | 149° |
| 2026-04-23 11:57 | 36.94643 | 37.47516 | 2223 ft | 6 kts | 107° |
| 2026-04-23 11:57 | 36.94627 | 37.47582 | 2220 ft | 10 kts | 107° |
| 2026-04-23 11:57 | 36.94605 | 37.47674 | 2224 ft | 12 kts | 107° |
| 2026-04-23 11:58 | 36.94582 | 37.47771 | 2223 ft | 11 kts | 107° |
| 2026-04-23 11:58 | 36.94580 | 37.47781 | 2223 ft | 0 kts | 107° |
| 2026-04-23 11:58 | 36.94583 | 37.47786 | 2223 ft | 1 kts | 60° |
| 2026-04-23 11:58 | 36.94610 | 37.47795 | 2223 ft | 6 kts | 11° |
| 2026-04-23 11:59 | 36.94644 | 37.47828 | 2221 ft | 7 kts | 73° |
| 2026-04-23 11:59 | 36.94635 | 37.47895 | 2223 ft | 10 kts | 105° |
| 2026-04-23 11:59 | 36.94613 | 37.47993 | 2223 ft | 14 kts | 105° |
| 2026-04-23 11:59 | 36.94585 | 37.48121 | 2222 ft | 17 kts | 105° |
| 2026-04-23 12:00 | 36.94553 | 37.48270 | 2225 ft | 19 kts | 105° |
| 2026-04-23 12:00 | 36.94516 | 37.48436 | 2222 ft | 21 kts | 105° |
| 2026-04-23 12:00 | 36.94478 | 37.48614 | 2223 ft | 21 kts | 105° |
| 2026-04-23 12:00 | 36.94440 | 37.48786 | 2220 ft | 17 kts | 105° |
| 2026-04-23 12:01 | 36.94412 | 37.48924 | 2222 ft | 16 kts | 103° |
| 2026-04-23 12:01 | 36.94387 | 37.49057 | 2224 ft | 15 kts | 104° |
| 2026-04-23 12:01 | 36.94363 | 37.49185 | 2224 ft | 15 kts | 102° |
| 2026-04-23 12:01 | 36.94336 | 37.49301 | 2222 ft | 11 kts | 111° |
| 2026-04-23 12:02 | 36.94320 | 37.49359 | 2224 ft | 6 kts | 98° |
| 2026-04-23 12:02 | 36.94342 | 37.49400 | 2220 ft | 6 kts | 29° |
| 2026-04-23 12:02 | 36.94382 | 37.49418 | 2220 ft | 6 kts | 15° |
| 2026-04-23 12:02 | 36.94422 | 37.49431 | 2237 ft | 6 kts | 8° |
| 2026-04-23 12:03 | 36.94473 | 37.49395 | 2222 ft | 15 kts | 300° |
| 2026-04-23 12:03 | 36.94523 | 37.49187 | 2221 ft | 50 kts | 285° |
| 2026-04-23 12:03 | 36.94684 | 37.48444 | 2225 ft | 125 kts | 285° |
| 2026-04-23 12:03 | 36.94945 | 37.47140 | 2238 ft | 182 kts | 280° |
| 2026-04-23 12:04 | 36.95307 | 37.45602 | 2891 ft | 191 kts | 285° |
| 2026-04-23 12:04 | 36.95639 | 37.43900 | 3483 ft | 211 kts | 280° |
| 2026-04-23 12:04 | 36.95952 | 37.42059 | 3982 ft | 220 kts | 278° |
| 2026-04-23 12:04 | 36.96282 | 37.40171 | 4510 ft | 225 kts | 279° |
| 2026-04-23 12:05 | 36.96631 | 37.38218 | 4972 ft | 232 kts | 280° |
| 2026-04-23 12:05 | 36.96991 | 37.36259 | 5414 ft | 233 kts | 280° |
| 2026-04-23 12:05 | 36.97373 | 37.34182 | 5661 ft | 256 kts | 281° |
| 2026-04-23 12:05 | 36.97779 | 37.31968 | 6363 ft | 265 kts | 280° |
| 2026-04-23 12:06 | 36.98195 | 37.29700 | 7136 ft | 269 kts | 281° |
| 2026-04-23 12:06 | 36.98615 | 37.27426 | 8022 ft | 267 kts | 281° |
| 2026-04-23 12:06 | 36.99452 | 37.22849 | 8923 ft | 271 kts | 281° |
| 2026-04-23 12:07 | 36.99871 | 37.20556 | 8935 ft | 270 kts | 280° |
| 2026-04-23 12:07 | 37.00474 | 37.18329 | 8937 ft | 275 kts | 298° |
| 2026-04-23 12:07 | 37.01735 | 37.16489 | 9330 ft | 284 kts | 316° |
| 2026-04-23 12:07 | 37.03288 | 37.14952 | 10170 ft | 285 kts | 318° |
| 2026-04-23 12:08 | 37.04905 | 37.13409 | 10569 ft | 303 kts | 319° |
| 2026-04-23 12:08 | 37.06649 | 37.11749 | 10746 ft | 327 kts | 319° |
| 2026-04-23 12:08 | 37.08519 | 37.09965 | 10912 ft | 349 kts | 319° |
| 2026-04-23 12:08 | 37.10501 | 37.08068 | 11065 ft | 368 kts | 319° |
| 2026-04-23 12:09 | 37.12575 | 37.06078 | 11359 ft | 381 kts | 319° |
| 2026-04-23 12:09 | 37.14670 | 37.04065 | 11891 ft | 386 kts | 319° |
| 2026-04-23 12:09 | 37.16829 | 37.01987 | 12538 ft | 387 kts | 318° |
| 2026-04-23 12:09 | 37.18944 | 36.99945 | 13144 ft | 390 kts | 318° |
| 2026-04-23 12:10 | 37.21101 | 36.97857 | 13720 ft | 393 kts | 318° |
| 2026-04-23 12:10 | 37.23277 | 36.95748 | 14253 ft | 396 kts | 317° |
| 2026-04-23 12:10 | 37.25463 | 36.93627 | 14812 ft | 398 kts | 317° |
| 2026-04-23 12:10 | 37.27658 | 36.91494 | 15380 ft | 400 kts | 317° |
| 2026-04-23 12:11 | 37.29865 | 36.89349 | 15934 ft | 402 kts | 317° |